createdAt,value
2017-02-08T00:00:41.907Z,0
2017-02-08T00:01:41.954Z,0
2017-02-08T00:02:42.012Z,0
2017-02-08T00:03:42.074Z,0
2017-02-08T00:04:42.116Z,0
2017-02-08T00:05:42.184Z,0
2017-02-08T00:06:42.247Z,0
2017-02-08T00:07:42.287Z,0
2017-02-08T00:08:42.337Z,0
2017-02-08T00:09:42.397Z,0
2017-02-08T00:10:42.454Z,0
2017-02-08T00:11:42.513Z,0
2017-02-08T00:12:42.552Z,0
2017-02-08T00:13:42.627Z,0
2017-02-08T00:14:42.669Z,0
2017-02-08T00:15:42.737Z,0
2017-02-08T00:16:42.821Z,0
2017-02-08T00:17:42.838Z,0
2017-02-08T00:18:42.891Z,0
2017-02-08T00:19:42.956Z,0
2017-02-08T00:20:42.997Z,0
2017-02-08T00:21:43.062Z,0
2017-02-08T00:22:43.094Z,0
2017-02-08T00:23:43.212Z,0
2017-02-08T00:24:43.219Z,0
2017-02-08T00:25:43.263Z,0
2017-02-08T00:26:43.317Z,0
2017-02-08T00:27:43.370Z,0
2017-02-08T00:28:43.436Z,0
2017-02-08T00:29:43.488Z,0
2017-02-08T00:30:43.548Z,0
2017-02-08T00:31:43.610Z,0
2017-02-08T00:32:43.656Z,0
2017-02-08T00:33:43.314Z,0
2017-02-08T00:34:43.749Z,0
2017-02-08T00:35:43.818Z,0
2017-02-08T00:36:43.870Z,0
2017-02-08T00:37:43.928Z,0
2017-02-08T00:38:43.983Z,0
2017-02-08T00:39:44.038Z,0
2017-02-08T00:40:44.091Z,0
2017-02-08T00:41:44.131Z,0
2017-02-08T00:42:44.196Z,0
2017-02-08T00:43:43.857Z,0
2017-02-08T00:44:44.316Z,0
2017-02-08T00:45:44.353Z,0
2017-02-08T00:46:44.408Z,0
2017-02-08T00:47:44.484Z,0
2017-02-08T00:48:44.528Z,0
2017-02-08T00:49:44.586Z,0
2017-02-08T00:50:44.246Z,0
2017-02-08T00:51:44.685Z,0
2017-02-08T00:52:44.735Z,0
2017-02-08T00:53:44.797Z,0
2017-02-08T00:54:44.464Z,0
2017-02-08T00:55:44.893Z,0
2017-02-08T00:56:44.949Z,0
2017-02-08T00:57:45.020Z,0
2017-02-08T00:58:45.064Z,0
2017-02-08T00:59:44.729Z,0
2017-02-08T01:00:45.174Z,0
2017-02-08T01:01:45.228Z,0
2017-02-08T01:02:45.272Z,0
2017-02-08T01:03:45.338Z,0
2017-02-08T01:04:45.002Z,0
2017-02-08T01:05:45.450Z,0
2017-02-08T01:06:45.500Z,0
2017-02-08T01:07:45.555Z,0
2017-02-08T01:08:45.608Z,0
2017-02-08T01:09:45.664Z,0
2017-02-08T01:10:45.719Z,0
2017-02-08T01:11:45.769Z,0
2017-02-08T01:12:45.829Z,0
2017-02-08T01:13:45.878Z,0
2017-02-08T01:14:45.927Z,0
2017-02-08T01:15:45.997Z,0
2017-02-08T01:16:46.042Z,0
2017-02-08T01:17:46.099Z,0
2017-02-08T01:18:46.150Z,0
2017-02-08T01:19:46.199Z,0
2017-02-08T01:20:46.248Z,0
2017-02-08T01:21:46.322Z,0
2017-02-08T01:22:46.357Z,0
2017-02-08T01:23:46.434Z,0
2017-02-08T01:24:46.485Z,0
2017-02-08T01:25:46.533Z,0
2017-02-08T01:26:46.588Z,0
2017-02-08T01:27:46.638Z,0
2017-02-08T01:28:46.694Z,0
2017-02-08T01:29:46.744Z,0
2017-02-08T01:30:46.815Z,0
2017-02-08T01:31:46.855Z,0
2017-02-08T01:32:46.909Z,0
2017-02-08T01:33:46.969Z,0
2017-02-08T01:34:47.030Z,0
2017-02-08T01:35:47.064Z,0
2017-02-08T01:36:47.128Z,0
2017-02-08T01:37:47.172Z,0
2017-02-08T01:38:47.236Z,0
2017-02-08T01:39:47.307Z,0
2017-02-08T01:40:47.345Z,0
2017-02-08T01:41:47.399Z,0
2017-02-08T01:42:47.457Z,0
2017-02-08T01:43:47.505Z,0
2017-02-08T01:44:47.182Z,0
2017-02-08T01:45:47.235Z,0
2017-02-08T01:46:47.662Z,0
2017-02-08T01:47:47.729Z,0
2017-02-08T01:48:47.782Z,0
2017-02-08T01:49:47.445Z,0
2017-02-08T01:50:47.901Z,0
2017-02-08T01:51:47.943Z,0
2017-02-08T01:52:47.622Z,0
2017-02-08T01:53:47.667Z,0
2017-02-08T01:54:48.098Z,0
2017-02-08T01:55:48.162Z,0
2017-02-08T01:56:48.218Z,0
2017-02-08T01:57:48.272Z,0
2017-02-08T01:58:48.327Z,0
2017-02-08T01:59:48.378Z,0
2017-02-08T02:00:48.433Z,0
2017-02-08T02:01:48.485Z,0
2017-02-08T02:02:48.540Z,0
2017-02-08T02:03:48.607Z,0
2017-02-08T02:04:48.651Z,0
2017-02-08T02:05:48.695Z,0
2017-02-08T02:06:48.748Z,0
2017-02-08T02:07:48.821Z,0
2017-02-08T02:08:48.868Z,0
2017-02-08T02:09:48.924Z,0
2017-02-08T02:10:48.975Z,0
2017-02-08T02:11:49.024Z,0
2017-02-08T02:12:49.088Z,0
2017-02-08T02:13:49.140Z,0
2017-02-08T02:14:49.195Z,0
2017-02-08T02:15:49.240Z,0
2017-02-08T02:16:49.306Z,0
2017-02-08T02:17:49.352Z,0
2017-02-08T02:18:49.416Z,0
2017-02-08T02:19:49.457Z,0
2017-02-08T02:20:49.515Z,0
2017-02-08T02:21:49.607Z,0
2017-02-08T02:22:49.632Z,0
2017-02-08T02:23:49.691Z,0
2017-02-08T02:24:49.739Z,0
2017-02-08T02:25:49.784Z,0
2017-02-08T02:26:49.849Z,0
2017-02-08T02:27:49.918Z,0
2017-02-08T02:28:49.960Z,0
2017-02-08T02:29:50.014Z,0
2017-02-08T02:30:50.066Z,0
2017-02-08T02:31:50.114Z,0
2017-02-08T02:32:50.190Z,0
2017-02-08T02:33:50.238Z,0
2017-02-08T02:34:50.275Z,0
2017-02-08T02:35:50.343Z,0
2017-02-08T02:36:50.384Z,0
2017-02-08T02:37:50.449Z,0
2017-02-08T02:38:50.502Z,0
2017-02-08T02:39:50.168Z,0
2017-02-08T02:40:50.611Z,0
2017-02-08T02:41:50.663Z,0
2017-02-08T02:42:50.718Z,0
2017-02-08T02:43:50.772Z,0
2017-02-08T02:44:50.822Z,0
2017-02-08T02:45:50.884Z,0
2017-02-08T02:46:50.940Z,0
2017-02-08T02:47:51.004Z,0
2017-02-08T02:48:51.047Z,0
2017-02-08T02:49:51.101Z,0
2017-02-08T02:50:51.153Z,0
2017-02-08T02:51:51.221Z,0
2017-02-08T02:52:51.264Z,0
2017-02-08T02:53:51.311Z,0
2017-02-08T02:54:51.362Z,0
2017-02-08T02:55:51.415Z,0
2017-02-08T02:56:51.479Z,0
2017-02-08T02:57:51.528Z,0
2017-02-08T02:58:51.586Z,0
2017-02-08T02:59:51.635Z,0
2017-02-08T03:00:51.687Z,0
2017-02-08T03:01:51.365Z,0
2017-02-08T03:02:51.853Z,0
2017-02-08T03:03:51.867Z,0
2017-02-08T03:04:51.921Z,0
2017-02-08T03:05:51.971Z,0
2017-02-08T03:06:52.018Z,0
2017-02-08T03:07:52.077Z,0
2017-02-08T03:08:52.135Z,0
2017-02-08T03:09:52.189Z,0
2017-02-08T03:10:52.242Z,0
2017-02-08T03:11:52.307Z,0
2017-02-08T03:12:52.348Z,0
2017-02-08T03:13:52.444Z,0
2017-02-08T03:14:52.465Z,0
2017-02-08T03:15:52.510Z,0
2017-02-08T03:16:52.567Z,0
2017-02-08T03:17:52.628Z,0
2017-02-08T03:18:52.678Z,0
2017-02-08T03:19:52.737Z,0
2017-02-08T03:20:52.774Z,0
2017-02-08T03:21:52.837Z,0
2017-02-08T03:22:52.901Z,0
2017-02-08T03:23:52.944Z,0
2017-02-08T03:24:53.009Z,0
2017-02-08T03:25:53.062Z,0
2017-02-08T03:26:53.110Z,0
2017-02-08T03:27:53.151Z,0
2017-02-08T03:28:53.218Z,0
2017-02-08T03:29:53.263Z,0
2017-02-08T03:30:53.324Z,0
2017-02-08T03:31:53.373Z,0
2017-02-08T03:32:53.440Z,0
2017-02-08T03:33:53.500Z,0
2017-02-08T03:34:53.535Z,0
2017-02-08T03:35:53.598Z,0
2017-02-08T03:36:53.269Z,0
2017-02-08T03:37:53.716Z,0
2017-02-08T03:38:53.757Z,0
2017-02-08T03:39:53.798Z,0
2017-02-08T03:40:53.859Z,0
2017-02-08T03:41:53.933Z,0
2017-02-08T03:42:53.965Z,0
2017-02-08T03:43:54.038Z,0
2017-02-08T03:44:54.086Z,0
2017-02-08T03:45:54.143Z,0
2017-02-08T03:46:54.182Z,0
2017-02-08T03:47:54.246Z,0
2017-02-08T03:48:54.315Z,0
2017-02-08T03:49:54.345Z,0
2017-02-08T03:50:54.403Z,0
2017-02-08T03:51:54.467Z,0
2017-02-08T03:52:54.526Z,0
2017-02-08T03:53:54.583Z,0
2017-02-08T03:54:54.619Z,0
2017-02-08T03:55:54.682Z,0
2017-02-08T03:56:54.735Z,0
2017-02-08T03:57:54.790Z,0
2017-02-08T03:58:54.844Z,0
2017-02-08T03:59:54.901Z,0
2017-02-08T04:00:54.952Z,0
2017-02-08T04:01:55.004Z,0
2017-02-08T04:02:55.064Z,0
2017-02-08T04:03:55.128Z,0
2017-02-08T04:04:55.159Z,0
2017-02-08T04:05:55.230Z,0
2017-02-08T04:06:55.281Z,0
2017-02-08T04:07:55.343Z,0
2017-02-08T04:08:55.392Z,0
2017-02-08T04:09:55.440Z,0
2017-02-08T04:10:55.487Z,0
2017-02-08T04:11:55.550Z,0
2017-02-08T04:12:55.589Z,0
2017-02-08T04:13:55.272Z,0
2017-02-08T04:14:55.709Z,0
2017-02-08T04:15:55.771Z,0
2017-02-08T04:16:55.804Z,0
2017-02-08T04:17:55.870Z,0
2017-02-08T04:18:55.912Z,0
2017-02-08T04:19:55.975Z,0
2017-02-08T04:20:56.022Z,0
2017-02-08T04:21:56.093Z,0
2017-02-08T04:22:56.137Z,0
2017-02-08T04:23:56.195Z,0
2017-02-08T04:24:56.255Z,0
2017-02-08T04:25:56.334Z,0
2017-02-08T04:26:56.351Z,0
2017-02-08T04:27:56.402Z,0
2017-02-08T04:28:56.464Z,0
2017-02-08T04:29:56.528Z,0
2017-02-08T04:30:56.581Z,0
2017-02-08T04:31:56.661Z,0
2017-02-08T04:32:56.696Z,0
2017-02-08T04:33:56.733Z,0
2017-02-08T04:34:56.787Z,0
2017-02-08T04:35:56.842Z,0
2017-02-08T04:36:56.892Z,0
2017-02-08T04:37:56.947Z,0
2017-02-08T04:38:57.004Z,0
2017-02-08T04:39:57.058Z,0
2017-02-08T04:40:57.099Z,0
2017-02-08T04:41:57.174Z,0
2017-02-08T04:42:57.229Z,0
2017-02-08T04:43:57.264Z,0
2017-02-08T04:44:57.337Z,0
2017-02-08T04:45:57.376Z,0
2017-02-08T04:46:57.435Z,0
2017-02-08T04:47:57.489Z,0
2017-02-08T04:48:57.554Z,0
2017-02-08T04:49:57.600Z,0
2017-02-08T04:50:57.646Z,0
2017-02-08T04:51:57.695Z,0
2017-02-08T04:52:57.757Z,0
2017-02-08T04:53:57.797Z,0
2017-02-08T04:54:57.873Z,0
2017-02-08T04:55:57.916Z,0
2017-02-08T04:56:57.980Z,0
2017-02-08T04:57:58.036Z,0
2017-02-08T04:58:58.076Z,0
2017-02-08T04:59:58.141Z,0
2017-02-08T05:00:58.177Z,0
2017-02-08T05:01:58.248Z,0
2017-02-08T05:02:58.293Z,0
2017-02-08T05:03:58.359Z,0
2017-02-08T05:04:58.410Z,0
2017-02-08T05:05:58.456Z,0
2017-02-08T05:06:58.519Z,0
2017-02-08T05:07:58.561Z,0
2017-02-08T05:08:58.609Z,0
2017-02-08T05:09:58.669Z,0
2017-02-08T05:10:58.733Z,0
2017-02-08T05:11:58.771Z,0
2017-02-08T05:12:58.841Z,0
2017-02-08T05:13:58.901Z,0
2017-02-08T05:14:58.952Z,0
2017-02-08T05:15:58.992Z,0
2017-02-08T05:16:59.047Z,0
2017-02-08T05:17:59.102Z,0
2017-02-08T05:18:59.143Z,0
2017-02-08T05:19:59.219Z,0
2017-02-08T05:20:59.462Z,0
2017-02-08T05:21:59.327Z,0
2017-02-08T05:22:59.358Z,0
2017-02-08T05:23:59.417Z,0
2017-02-08T05:24:59.468Z,0
2017-02-08T05:25:59.521Z,0
2017-02-08T05:27:59.636Z,0
2017-02-08T05:28:59.701Z,0
2017-02-08T05:29:59.757Z,0
2017-02-08T05:30:59.802Z,0
2017-02-08T05:31:59.854Z,0
2017-02-08T05:32:59.917Z,0
2017-02-08T05:33:59.962Z,0
2017-02-08T05:35:00.007Z,0
2017-02-08T05:36:00.072Z,0
2017-02-08T05:37:00.124Z,0
2017-02-08T05:38:00.164Z,0
2017-02-08T05:39:00.230Z,0
2017-02-08T05:40:00.296Z,0
2017-02-08T05:41:00.348Z,0
2017-02-08T05:42:00.401Z,0
2017-02-08T05:43:00.457Z,0
2017-02-08T05:44:00.509Z,0
2017-02-08T05:45:00.550Z,0
2017-02-08T05:46:00.594Z,0
2017-02-08T05:47:00.661Z,0
2017-02-08T05:48:00.704Z,0
2017-02-08T05:49:00.767Z,0
2017-02-08T05:50:00.811Z,0
2017-02-08T05:51:00.874Z,0
2017-02-08T05:52:00.934Z,0
2017-02-08T05:53:01.199Z,0
2017-02-08T05:54:00.650Z,0
2017-02-08T05:55:01.076Z,0
2017-02-08T05:56:01.155Z,0
2017-02-08T05:57:01.198Z,0
2017-02-08T05:58:01.253Z,0
2017-02-08T05:59:01.515Z,0
2017-02-08T06:00:01.359Z,0
2017-02-08T06:01:01.410Z,0
2017-02-08T06:02:01.453Z,0
2017-02-08T06:03:01.520Z,0
2017-02-08T06:04:01.574Z,0
2017-02-08T06:05:01.643Z,0
2017-02-08T06:06:01.700Z,0
2017-02-08T06:07:01.731Z,0
2017-02-08T06:08:01.779Z,0
2017-02-08T06:09:01.467Z,0
2017-02-08T06:10:01.896Z,0
2017-02-08T06:11:01.949Z,0
2017-02-08T06:12:02.002Z,0
2017-02-08T06:13:02.057Z,0
2017-02-08T06:14:02.147Z,0
2017-02-08T06:15:02.157Z,0
2017-02-08T06:16:02.205Z,0
2017-02-08T06:17:02.270Z,4
2017-02-08T06:18:02.317Z,4
2017-02-08T06:19:02.380Z,4
2017-02-08T06:20:02.439Z,4
2017-02-08T06:21:02.487Z,4
2017-02-08T06:22:02.539Z,0
2017-02-08T06:23:02.207Z,4
2017-02-08T06:24:02.652Z,4
2017-02-08T06:25:02.715Z,4
2017-02-08T06:26:02.968Z,8
2017-02-08T06:27:03.013Z,8
2017-02-08T06:28:02.871Z,4
2017-02-08T06:29:02.919Z,8
2017-02-08T06:30:02.971Z,8
2017-02-08T06:31:03.037Z,12
2017-02-08T06:32:03.280Z,12
2017-02-08T06:33:03.123Z,12
2017-02-08T06:34:03.197Z,12
2017-02-08T06:35:03.240Z,16
2017-02-08T06:36:03.285Z,12
2017-02-08T06:37:03.336Z,16
2017-02-08T06:38:03.409Z,16
2017-02-08T06:39:03.455Z,20
2017-02-08T06:40:03.504Z,20
2017-02-08T06:41:03.562Z,20
2017-02-08T06:42:03.604Z,24
2017-02-08T06:43:03.658Z,24
2017-02-08T06:44:03.720Z,24
2017-02-08T06:45:03.774Z,32
2017-02-08T06:46:03.820Z,32
2017-02-08T06:47:03.882Z,36
2017-02-08T06:48:03.940Z,40
2017-02-08T06:49:03.981Z,44
2017-02-08T06:50:04.041Z,44
2017-02-08T06:51:04.096Z,48
2017-02-08T06:52:04.161Z,52
2017-02-08T06:53:04.235Z,52
2017-02-08T06:54:04.268Z,56
2017-02-08T06:55:04.309Z,60
2017-02-08T06:56:04.366Z,64
2017-02-08T06:57:04.418Z,64
2017-02-08T06:58:04.485Z,68
2017-02-08T06:59:04.742Z,72
2017-02-08T07:00:04.789Z,76
2017-02-08T07:01:04.632Z,80
2017-02-08T07:02:04.677Z,84
2017-02-08T07:03:04.731Z,88
2017-02-08T07:04:04.798Z,92
2017-02-08T07:05:04.852Z,92
2017-02-08T07:07:04.967Z,96
2017-02-08T07:08:05.026Z,104
2017-02-08T07:09:05.075Z,108
2017-02-08T07:10:05.130Z,108
2017-02-08T07:11:05.162Z,112
2017-02-08T07:12:05.225Z,116
2017-02-08T07:13:05.290Z,124
2017-02-08T07:14:05.330Z,136
2017-02-08T07:15:05.384Z,136
2017-02-08T07:16:05.431Z,132
2017-02-08T07:17:05.501Z,140
2017-02-08T07:18:05.756Z,148
2017-02-08T07:19:05.598Z,152
2017-02-08T07:20:05.662Z,156
2017-02-08T07:21:05.706Z,156
2017-02-08T07:22:05.764Z,152
2017-02-08T07:23:05.815Z,160
2017-02-08T07:24:05.867Z,168
2017-02-08T07:25:05.931Z,172
2017-02-08T07:26:05.979Z,176
2017-02-08T07:27:05.849Z,180
2017-02-08T07:28:06.087Z,180
2017-02-08T07:29:06.150Z,188
2017-02-08T07:30:05.421Z,196
2017-02-08T07:31:05.863Z,208
2017-02-08T07:32:06.533Z,216
2017-02-08T07:33:19.994Z,224
2017-02-08T07:34:06.393Z,232
2017-02-08T07:35:06.472Z,236
2017-02-08T07:36:06.503Z,232
2017-02-08T07:37:06.579Z,236
2017-02-08T07:38:06.613Z,244
2017-02-08T07:39:06.674Z,256
2017-02-08T07:40:06.721Z,268
2017-02-08T07:41:06.783Z,264
2017-02-08T07:42:06.850Z,260
2017-02-08T07:43:06.888Z,264
2017-02-08T07:44:06.947Z,272
2017-02-08T07:45:06.993Z,280
2017-02-08T07:46:07.050Z,292
2017-02-08T07:47:07.110Z,300
2017-02-08T07:48:07.170Z,312
2017-02-08T07:49:07.204Z,324
2017-02-08T07:50:07.275Z,344
2017-02-08T07:51:07.327Z,340
2017-02-08T07:52:07.367Z,340
2017-02-08T07:53:07.432Z,344
2017-02-08T07:54:07.483Z,344
2017-02-08T07:55:07.540Z,352
2017-02-08T07:56:07.197Z,356
2017-02-08T07:57:07.629Z,360
2017-02-08T07:58:07.702Z,368
2017-02-08T07:59:07.741Z,372
2017-02-08T08:00:07.413Z,372
2017-02-08T08:01:08.048Z,376
2017-02-08T08:02:07.911Z,368
2017-02-08T08:03:07.954Z,368
2017-02-08T08:04:08.018Z,384
2017-02-08T08:05:08.063Z,404
2017-02-08T08:06:21.762Z,412
2017-02-08T08:07:08.189Z,416
2017-02-08T08:08:08.221Z,424
2017-02-08T08:09:08.324Z,440
2017-02-08T08:10:08.348Z,456
2017-02-08T08:11:08.397Z,472
2017-02-08T08:12:07.674Z,488
2017-02-08T08:13:08.499Z,488
2017-02-08T08:14:08.568Z,480
2017-02-08T08:15:08.611Z,476
2017-02-08T08:16:08.673Z,476
2017-02-08T08:17:08.706Z,464
2017-02-08T08:18:08.768Z,456
2017-02-08T08:19:08.813Z,476
2017-02-08T08:20:08.482Z,496
2017-02-08T08:21:08.932Z,524
2017-02-08T08:22:08.977Z,564
2017-02-08T08:23:09.042Z,560
2017-02-08T08:24:09.094Z,568
2017-02-08T08:25:09.154Z,540
2017-02-08T08:26:09.192Z,536
2017-02-08T08:27:09.244Z,540
2017-02-08T08:28:09.308Z,572
2017-02-08T08:29:09.369Z,616
2017-02-08T08:30:09.419Z,616
2017-02-08T08:31:09.516Z,628
2017-02-08T08:32:09.131Z,616
2017-02-08T08:33:09.575Z,592
2017-02-08T08:34:09.833Z,584
2017-02-08T08:35:09.685Z,636
2017-02-08T08:36:09.749Z,644
2017-02-08T08:37:09.794Z,640
2017-02-08T08:38:09.856Z,624
2017-02-08T08:39:09.716Z,596
2017-02-08T08:40:09.951Z,584
2017-02-08T08:41:10.013Z,560
2017-02-08T08:42:10.076Z,540
2017-02-08T08:43:10.116Z,536
2017-02-08T08:44:09.784Z,516
2017-02-08T08:45:10.453Z,600
2017-02-08T08:46:09.903Z,704
2017-02-08T08:47:09.947Z,912
2017-02-08T08:48:10.387Z,1176
2017-02-08T08:49:10.451Z,1444
2017-02-08T08:50:10.107Z,1420
2017-02-08T08:51:10.552Z,1300
2017-02-08T08:52:10.217Z,1120
2017-02-08T08:53:10.671Z,1000
2017-02-08T08:54:10.703Z,808
2017-02-08T08:55:10.372Z,692
2017-02-08T08:56:10.437Z,668
2017-02-08T08:57:10.875Z,704
2017-02-08T08:58:10.930Z,720
2017-02-08T08:59:10.982Z,752
2017-02-08T09:00:11.028Z,796
2017-02-08T09:01:11.083Z,788
2017-02-08T09:02:10.756Z,788
2017-02-08T09:03:11.209Z,808
2017-02-08T09:04:10.871Z,816
2017-02-08T09:05:11.308Z,832
2017-02-08T09:06:11.361Z,892
2017-02-08T09:07:11.405Z,1012
2017-02-08T09:08:11.470Z,1096
2017-02-08T09:09:11.523Z,1132
2017-02-08T09:10:11.579Z,1132
2017-02-08T09:11:11.643Z,1104
2017-02-08T09:12:11.676Z,1116
2017-02-08T09:13:11.740Z,1132
2017-02-08T09:14:11.796Z,1108
2017-02-08T09:15:11.842Z,1112
2017-02-08T09:16:11.908Z,1104
2017-02-08T09:17:11.964Z,1120
2017-02-08T09:18:12.025Z,1080
2017-02-08T09:19:12.055Z,1076
2017-02-08T09:20:12.129Z,1096
2017-02-08T09:21:12.173Z,1116
2017-02-08T09:22:12.218Z,1136
2017-02-08T09:23:11.897Z,1104
2017-02-08T09:24:12.326Z,1076
2017-02-08T09:25:12.393Z,1060
2017-02-08T09:26:12.051Z,1060
2017-02-08T09:27:12.501Z,1032
2017-02-08T09:28:12.158Z,1008
2017-02-08T09:29:12.223Z,1008
2017-02-08T09:30:12.666Z,1028
2017-02-08T09:31:12.331Z,1112
2017-02-08T09:32:12.387Z,1180
2017-02-08T09:33:12.834Z,1228
2017-02-08T09:34:12.882Z,1300
2017-02-08T09:35:12.927Z,1380
2017-02-08T09:36:12.991Z,1416
2017-02-08T09:37:12.659Z,1376
2017-02-08T09:38:12.705Z,1264
2017-02-08T09:39:13.153Z,1180
2017-02-08T09:40:13.198Z,1120
2017-02-08T09:41:13.264Z,1088
2017-02-08T09:42:12.936Z,1140
2017-02-08T09:43:13.373Z,1284
2017-02-08T09:44:13.418Z,1356
2017-02-08T09:45:13.483Z,1420
2017-02-08T09:46:13.141Z,1388
2017-02-08T09:47:13.600Z,1304
2017-02-08T09:48:13.645Z,1244
2017-02-08T09:49:13.686Z,1196
2017-02-08T09:50:13.764Z,1152
2017-02-08T09:51:13.803Z,1076
2017-02-08T09:52:13.878Z,956
2017-02-08T09:53:13.917Z,904
2017-02-08T09:54:13.971Z,1064
2017-02-08T09:55:14.027Z,1184
2017-02-08T09:56:14.083Z,1236
2017-02-08T09:57:14.122Z,1424
2017-02-08T09:58:14.182Z,1576
2017-02-08T09:59:14.255Z,1516
2017-02-08T10:00:14.301Z,1444
2017-02-08T10:01:14.350Z,1584
2017-02-08T10:02:14.410Z,1628
2017-02-08T10:03:14.455Z,1748
2017-02-08T10:04:14.122Z,1748
2017-02-08T10:05:14.581Z,1852
2017-02-08T10:06:14.625Z,1816
2017-02-08T10:07:14.684Z,1760
2017-02-08T10:08:14.732Z,1752
2017-02-08T10:09:14.791Z,1844
2017-02-08T10:10:14.844Z,1788
2017-02-08T10:11:14.903Z,1728
2017-02-08T10:12:14.958Z,1632
2017-02-08T10:13:15.021Z,1736
2017-02-08T10:14:15.077Z,1748
2017-02-08T10:15:15.119Z,1872
2017-02-08T10:16:15.167Z,1896
2017-02-08T10:17:15.226Z,1852
2017-02-08T10:18:15.284Z,1736
2017-02-08T10:19:15.339Z,1624
2017-02-08T10:20:15.391Z,1584
2017-02-08T10:21:15.451Z,1568
2017-02-08T10:22:15.516Z,1524
2017-02-08T10:23:15.547Z,1444
2017-02-08T10:24:15.614Z,1372
2017-02-08T10:25:15.669Z,1316
2017-02-08T10:26:15.729Z,1284
2017-02-08T10:27:15.768Z,1264
2017-02-08T10:28:15.836Z,1256
2017-02-08T10:29:15.889Z,1212
2017-02-08T10:30:15.981Z,1160
2017-02-08T10:31:15.998Z,1124
2017-02-08T10:32:16.049Z,1108
2017-02-08T10:33:16.106Z,1096
2017-02-08T10:34:16.151Z,1088
2017-02-08T10:35:16.207Z,1076
2017-02-08T10:36:16.268Z,1060
2017-02-08T10:37:16.325Z,1056
2017-02-08T10:38:16.378Z,1052
2017-02-08T10:39:16.427Z,1048
2017-02-08T10:40:16.489Z,1052
2017-02-08T10:41:16.540Z,1064
2017-02-08T10:42:16.601Z,1052
2017-02-08T10:43:16.649Z,1024
2017-02-08T10:44:16.708Z,1024
2017-02-08T10:45:16.760Z,1048
2017-02-08T10:46:16.830Z,1080
2017-02-08T10:47:16.882Z,1072
2017-02-08T10:48:16.935Z,1068
2017-02-08T10:49:17.005Z,1080
2017-02-08T10:50:17.028Z,1140
2017-02-08T10:51:17.103Z,1216
2017-02-08T10:52:17.147Z,1336
2017-02-08T10:53:17.193Z,1424
2017-02-08T10:54:17.247Z,1420
2017-02-08T10:55:17.319Z,1348
2017-02-08T10:56:16.979Z,1288
2017-02-08T10:57:17.422Z,1244
2017-02-08T10:58:17.490Z,1236
2017-02-08T10:59:17.532Z,1244
2017-02-08T11:00:17.587Z,1256
2017-02-08T11:01:17.640Z,1264
2017-02-08T11:02:17.737Z,1264
2017-02-08T11:03:17.761Z,1256
2017-02-08T11:04:17.795Z,1248
2017-02-08T11:05:17.863Z,1240
2017-02-08T11:06:17.913Z,1228
2017-02-08T11:07:17.970Z,1208
2017-02-08T11:08:18.020Z,1220
2017-02-08T11:09:18.090Z,1204
2017-02-08T11:10:18.126Z,1204
2017-02-08T11:11:18.192Z,1212
2017-02-08T11:12:18.253Z,1204
2017-02-08T11:13:18.292Z,1188
2017-02-08T11:14:18.354Z,1180
2017-02-08T11:15:18.398Z,1160
2017-02-08T11:16:18.463Z,1168
2017-02-08T11:17:18.521Z,1200
2017-02-08T11:18:18.194Z,1244
2017-02-08T11:19:18.645Z,1232
2017-02-08T11:20:18.297Z,1228
2017-02-08T11:21:18.360Z,1220
2017-02-08T11:22:18.414Z,1224
2017-02-08T11:23:18.852Z,1248
2017-02-08T11:24:18.905Z,1268
2017-02-08T11:25:18.569Z,1292
2017-02-08T11:26:18.778Z,1292
2017-02-08T11:27:18.677Z,1360
2017-02-08T11:28:19.126Z,1432
2017-02-08T11:29:18.791Z,1540
2017-02-08T11:30:19.227Z,1840
2017-02-08T11:31:18.908Z,5508
2017-02-08T11:32:18.957Z,6724
2017-02-08T11:33:19.399Z,9216
2017-02-08T11:34:19.457Z,10648
2017-02-08T11:35:19.521Z,6008
2017-02-08T11:36:19.598Z,3848
2017-02-08T11:37:19.620Z,3424
2017-02-08T11:38:19.665Z,3884
2017-02-08T11:39:19.721Z,4192
2017-02-08T11:40:19.783Z,2936
2017-02-08T11:41:19.849Z,2348
2017-02-08T11:42:19.905Z,2152
2017-02-08T11:43:19.954Z,1956
2017-02-08T11:44:20.007Z,1940
2017-02-08T11:45:20.062Z,1928
2017-02-08T11:46:20.117Z,1788
2017-02-08T11:47:20.174Z,1792
2017-02-08T11:48:20.228Z,1688
2017-02-08T11:49:20.274Z,1500
2017-02-08T11:50:20.351Z,1448
2017-02-08T11:51:20.398Z,1508
2017-02-08T11:52:20.450Z,1540
2017-02-08T11:53:20.515Z,1484
2017-02-08T11:54:20.563Z,1432
2017-02-08T11:55:20.237Z,1472
2017-02-08T11:56:20.668Z,1472
2017-02-08T11:57:20.722Z,1476
2017-02-08T11:58:20.772Z,1500
2017-02-08T11:59:20.846Z,1604
2017-02-08T12:00:20.899Z,1580
2017-02-08T12:01:20.946Z,1676
2017-02-08T12:02:20.603Z,1584
2017-02-08T12:03:20.670Z,1728
2017-02-08T12:04:20.716Z,1844
2017-02-08T12:05:20.777Z,1872
2017-02-08T12:06:21.222Z,1812
2017-02-08T12:07:21.284Z,1816
2017-02-08T12:08:21.333Z,1676
2017-02-08T12:09:21.009Z,1660
2017-02-08T12:10:21.055Z,1644
2017-02-08T12:11:21.497Z,1620
2017-02-08T12:12:21.566Z,1604
2017-02-08T12:13:21.619Z,1636
2017-02-08T12:14:21.661Z,1660
2017-02-08T12:15:21.718Z,1576
2017-02-08T12:16:21.394Z,1532
2017-02-08T12:17:21.817Z,1456
2017-02-08T12:18:21.891Z,1488
2017-02-08T12:19:21.932Z,1588
2017-02-08T12:20:21.998Z,1652
2017-02-08T12:21:22.041Z,1908
2017-02-08T12:22:22.104Z,1940
2017-02-08T12:23:22.157Z,1872
2017-02-08T12:24:22.205Z,1840
2017-02-08T12:25:22.278Z,1848
2017-02-08T12:26:22.337Z,1772
2017-02-08T12:27:22.487Z,1676
2017-02-08T12:28:22.434Z,1544
2017-02-08T12:29:22.479Z,1716
2017-02-08T12:30:22.546Z,1440
2017-02-08T12:31:22.612Z,1568
2017-02-08T12:32:22.646Z,1904
2017-02-08T12:33:22.711Z,1904
2017-02-08T12:34:22.785Z,1660
2017-02-08T12:35:22.820Z,1676
2017-02-08T12:36:22.887Z,1500
2017-02-08T12:37:22.940Z,1420
2017-02-08T12:38:22.985Z,1488
2017-02-08T12:39:23.031Z,1496
2017-02-08T12:40:23.088Z,1468
2017-02-08T12:41:23.161Z,1480
2017-02-08T12:42:23.208Z,1568
2017-02-08T12:43:23.252Z,1816
2017-02-08T12:44:23.318Z,1488
2017-02-08T12:45:23.372Z,1360
2017-02-08T12:46:23.442Z,1212
2017-02-08T12:47:23.484Z,1180
2017-02-08T12:48:23.548Z,1240
2017-02-08T12:49:23.594Z,1236
2017-02-08T12:50:23.651Z,1208
2017-02-08T12:51:23.319Z,1228
2017-02-08T12:52:23.768Z,1228
2017-02-08T12:53:23.817Z,1248
2017-02-08T12:54:23.872Z,1304
2017-02-08T12:55:23.536Z,1188
2017-02-08T12:56:23.993Z,1100
2017-02-08T12:57:24.049Z,1080
2017-02-08T12:58:24.101Z,1044
2017-02-08T12:59:24.148Z,1064
2017-02-08T13:00:24.210Z,1064
2017-02-08T13:01:24.268Z,1076
2017-02-08T13:02:24.314Z,1064
2017-02-08T13:03:24.375Z,1048
2017-02-08T13:04:24.411Z,1024
2017-02-08T13:05:24.480Z,1024
2017-02-08T13:06:24.533Z,976
2017-02-08T13:07:24.587Z,972
2017-02-08T13:08:24.641Z,996
2017-02-08T13:09:24.707Z,980
2017-02-08T13:10:24.751Z,984
2017-02-08T13:11:24.810Z,988
2017-02-08T13:12:24.866Z,972
2017-02-08T13:13:25.017Z,932
2017-02-08T13:14:24.967Z,908
2017-02-08T13:15:25.042Z,920
2017-02-08T13:16:25.084Z,948
2017-02-08T13:17:25.144Z,904
2017-02-08T13:18:25.186Z,880
2017-02-08T13:19:25.270Z,904
2017-02-08T13:20:25.298Z,928
2017-02-08T13:21:24.974Z,892
2017-02-08T13:22:25.461Z,876
2017-02-08T13:23:25.474Z,852
2017-02-08T13:24:25.525Z,824
2017-02-08T13:25:25.588Z,816
2017-02-08T13:26:25.627Z,812
2017-02-08T13:27:25.679Z,812
2017-02-08T13:28:25.735Z,812
2017-02-08T13:29:25.804Z,812
2017-02-08T13:30:25.845Z,812
2017-02-08T13:31:25.913Z,824
2017-02-08T13:32:25.959Z,856
2017-02-08T13:33:26.023Z,900
2017-02-08T13:34:26.094Z,912
2017-02-08T13:35:26.145Z,932
2017-02-08T13:36:26.183Z,960
2017-02-08T13:37:26.242Z,1012
2017-02-08T13:38:26.296Z,1036
2017-02-08T13:39:26.352Z,1056
2017-02-08T13:40:26.409Z,1052
2017-02-08T13:41:26.456Z,1056
2017-02-08T13:42:26.521Z,1060
2017-02-08T13:43:26.582Z,1060
2017-02-08T13:44:26.616Z,1052
2017-02-08T13:45:26.687Z,1088
2017-02-08T13:46:26.748Z,1204
2017-02-08T13:47:26.796Z,1316
2017-02-08T13:48:26.849Z,1340
2017-02-08T13:49:26.899Z,1328
2017-02-08T13:50:26.966Z,1332
2017-02-08T13:51:27.013Z,1368
2017-02-08T13:52:27.071Z,1412
2017-02-08T13:53:27.127Z,1444
2017-02-08T13:54:27.179Z,1484
2017-02-08T13:55:27.237Z,1472
2017-02-08T13:56:27.290Z,1448
2017-02-08T13:57:27.347Z,1480
2017-02-08T13:58:27.398Z,1464
2017-02-08T13:59:27.555Z,1400
2017-02-08T14:00:27.503Z,1396
2017-02-08T14:01:27.578Z,1340
2017-02-08T14:02:27.624Z,1260
2017-02-08T14:03:27.681Z,1160
2017-02-08T14:04:27.732Z,1088
2017-02-08T14:05:27.774Z,1012
2017-02-08T14:06:27.843Z,940
2017-02-08T14:07:27.897Z,900